Worthing, South Dakota
Current Conditions -  °F | °C
As of 3:43 AM on Monday 24 Nov 2014 (Local Time) from KFSD Reporting Station
Overcast Overcast  
Wind Chill:   Ceiling: 1900
Heat Index: 20°   Visibility: 10mi
Dew Point: 13°   Wind: 22mph
Humidity: 74%   Direction: 330°NNW
Pressure: 29.54"   Gusts: 30mph
Location:  43.33°N, 96.76°W
Report Text: KFSD 240943Z AUTO 33019G26KT 10SM BKN019 OVC030 M07/M11 A2954 RMK AO2 PK WND 33026/0916 T10671106
Loading
Personal Weather Stations






























Interactive Weather Map New forecast layout! Learn more

10-Day Weather Forecast

Advertisements
Track Severe Weather on mobile